Time;durP1;ratioP1;P1;durP2;ratioP2;P2;SDS_P1;SDS_P2;PMS_P1;PMS_P2;Temp;Humidity;BMP_temperature;BMP_pressure;BME280_temperature;BME280_humidity;BME280_pressure;Samples;Min_cycle;Max_cycle;Signal;HPM_P1;HPM_P2
2021/03/07 00:01:28;;;;;;;6.23;5.73;;;2.20;62.30;;;;;;10460187;28;20213;-78
2021/03/07 00:06:30;;;;;;;6.83;5.77;;;2.20;62.30;;;;;;10462398;28;20255;-78
2021/03/07 00:11:32;;;;;;;7.03;6.33;;;2.10;62.10;;;;;;10461328;28;20225;-78
2021/03/07 00:16:34;;;;;;;6.53;5.53;;;2.10;61.40;;;;;;10460592;28;20234;-78
2021/03/07 00:21:36;;;;;;;6.67;5.70;;;2.10;61.30;;;;;;10462201;28;20235;-78
2021/03/07 00:26:37;;;;;;;8.70;7.40;;;2.00;61.90;;;;;;10469094;28;20224;-78
2021/03/07 00:31:40;;;;;;;6.83;5.93;;;2.00;62.20;;;;;;10473379;28;20248;-78
2021/03/07 00:36:41;;;;;;;6.03;5.43;;;2.00;62.70;;;;;;10457378;28;20219;-78
2021/03/07 00:41:44;;;;;;;7.60;6.80;;;2.00;63.80;;;;;;10462091;28;20224;-78
2021/03/07 00:46:48;;;;;;;8.73;7.07;;;2.00;63.30;;;;;;10460873;28;20201;-78
2021/03/07 00:51:49;;;;;;;5.93;5.33;;;1.90;62.40;;;;;;10466175;28;20278;-78
2021/03/07 00:56:53;;;;;;;6.27;5.67;;;1.90;63.00;;;;;;10458979;28;20202;-78
2021/03/07 01:01:55;;;;;;;6.90;6.30;;;1.90;63.40;;;;;;10456390;28;20217;-78
2021/03/07 01:06:57;;;;;;;6.50;5.80;;;1.90;63.40;;;;;;10458519;28;20446;-79
2021/03/07 01:11:58;;;;;;;7.73;6.37;;;1.90;63.50;;;;;;10458617;28;20307;-78
2021/03/07 01:17:01;;;;;;;7.20;6.50;;;1.90;63.90;;;;;;10457457;28;20586;-78
2021/03/07 01:22:03;;;;;;;7.07;6.37;;;1.90;63.60;;;;;;10457881;28;20213;-78
2021/03/07 01:27:05;;;;;;;7.03;6.33;;;1.90;63.90;;;;;;10458539;28;20800;-78
2021/03/07 01:32:08;;;;;;;7.63;6.07;;;1.90;63.60;;;;;;10455173;28;20213;-78
2021/03/07 01:37:10;;;;;;;7.43;6.20;;;1.90;64.00;;;;;;10454645;28;20208;-78
2021/03/07 01:42:12;;;;;;;6.40;5.87;;;1.90;63.70;;;;;;10457882;28;20262;-78
2021/03/07 01:47:18;;;;;;;7.07;6.37;;;1.90;63.90;;;;;;10458697;28;20294;-78
2021/03/07 01:52:20;;;;;;;6.43;5.83;;;1.90;64.40;;;;;;10458059;28;20297;-78
2021/03/07 01:57:24;;;;;;;6.30;5.70;;;1.80;65.00;;;;;;10458893;28;20280;-78
2021/03/07 02:02:26;;;;;;;6.20;5.60;;;1.70;64.80;;;;;;10453150;28;20267;-78
2021/03/07 02:07:28;;;;;;;6.40;5.87;;;1.70;65.20;;;;;;10462336;28;20194;-78
2021/03/07 02:12:30;;;;;;;6.10;5.50;;;1.60;65.40;;;;;;10544940;22;20333;-80
2021/03/07 02:17:33;;;;;;;6.60;6.03;;;1.50;65.30;;;;;;10537566;28;20310;-78
2021/03/07 02:22:42;;;;;;;7.03;6.43;;;1.50;65.90;;;;;;10532607;28;20223;-78
2021/03/07 02:27:46;;;;;;;7.27;6.03;;;1.40;67.20;;;;;;10535260;28;20257;-80
2021/03/07 02:32:55;;;;;;;6.37;5.40;;;1.40;67.50;;;;;;10538023;28;20212;-79
2021/03/07 02:38:01;;;;;;;6.63;6.03;;;1.50;66.90;;;;;;10535902;28;20234;-80
2021/03/07 02:43:07;;;;;;;6.30;5.70;;;1.50;66.80;;;;;;10519470;28;20216;-80
2021/03/07 02:48:11;;;;;;;6.43;5.83;;;1.50;66.60;;;;;;10535061;28;20199;-80
2021/03/07 02:53:18;;;;;;;7.50;6.50;;;1.50;66.40;;;;;;10535151;28;20629;-80
2021/03/07 02:58:23;;;;;;;6.03;5.40;;;1.50;66.50;;;;;;10534786;28;20196;-78
2021/03/07 03:03:28;;;;;;;6.50;5.90;;;1.50;67.50;;;;;;10564590;28;20227;-80
2021/03/07 03:08:32;;;;;;;6.63;5.20;;;1.50;67.50;;;;;;10521595;28;20203;-78
2021/03/07 03:13:36;;;;;;;6.47;5.80;;;1.50;66.80;;;;;;10539901;28;20349;-78
2021/03/07 03:18:40;;;;;;;6.80;6.10;;;1.50;67.00;;;;;;10540192;28;20222;-80
2021/03/07 03:23:42;;;;;;;7.07;6.47;;;1.50;66.90;;;;;;10518781;28;20716;-80
2021/03/07 03:28:47;;;;;;;6.70;5.73;;;1.60;66.50;;;;;;10541783;28;20200;-80
2021/03/07 03:33:49;;;;;;;7.63;6.60;;;1.50;66.80;;;;;;10538798;28;20227;-78
2021/03/07 03:38:53;;;;;;;7.50;6.80;;;1.50;67.10;;;;;;10540655;28;20227;-78
2021/03/07 03:43:58;;;;;;;8.13;7.10;;;1.50;66.80;;;;;;10522368;28;20699;-79
2021/03/07 03:49:09;;;;;;;7.03;6.33;;;1.50;66.60;;;;;;10538929;28;20227;-79
2021/03/07 03:54:12;;;;;;;6.77;6.17;;;1.40;67.10;;;;;;10540107;28;20279;-79
2021/03/07 03:59:18;;;;;;;7.83;7.10;;;1.40;67.40;;;;;;10523184;28;20211;-79
2021/03/07 04:04:21;;;;;;;6.70;6.10;;;1.40;67.70;;;;;;10539752;28;20216;-78
2021/03/07 04:09:24;;;;;;;6.93;6.33;;;1.40;67.80;;;;;;10527391;28;20349;-80
2021/03/07 04:14:27;;;;;;;6.60;5.90;;;1.40;67.60;;;;;;10549256;28;20210;-78
2021/03/07 04:19:31;;;;;;;6.73;6.13;;;1.40;67.60;;;;;;10529592;28;20369;-79
2021/03/07 04:24:33;;;;;;;7.13;6.13;;;1.40;67.50;;;;;;10554329;28;20247;-81
2021/03/07 04:29:37;;;;;;;6.50;5.90;;;1.30;67.30;;;;;;10577627;28;20241;-77
2021/03/07 04:34:40;;;;;;;6.73;6.13;;;1.20;67.00;;;;;;10531902;28;20275;-77
2021/03/07 04:39:41;;;;;;;7.10;6.40;;;1.20;67.70;;;;;;10547620;28;20220;-79
2021/03/07 04:44:44;;;;;;;7.27;6.57;;;1.20;67.70;;;;;;10546960;28;20222;-80
2021/03/07 04:49:46;;;;;;;7.03;6.33;;;1.10;67.60;;;;;;10546771;28;20216;-79
2021/03/07 04:54:47;;;;;;;7.40;6.70;;;1.10;67.30;;;;;;10545637;28;20264;-79
2021/03/07 04:59:50;;;;;;;7.37;6.63;;;1.20;67.70;;;;;;10541247;28;20221;-79
2021/03/07 05:04:51;;;;;;;7.33;6.10;;;1.20;67.70;;;;;;10543870;28;20251;-78
2021/03/07 05:09:53;;;;;;;6.70;6.00;;;1.20;67.50;;;;;;10543573;28;20237;-80
2021/03/07 05:14:55;;;;;;;7.33;6.63;;;1.20;67.70;;;;;;10546448;28;20200;-78
2021/03/07 05:19:57;;;;;;;7.50;6.80;;;1.20;68.00;;;;;;10544347;28;20349;-79
2021/03/07 05:24:58;;;;;;;6.93;6.07;;;1.20;68.50;;;;;;10539588;28;20433;-80
2021/03/07 05:30:01;;;;;;;8.00;7.20;;;1.10;68.70;;;;;;10538228;28;20706;-80
2021/03/07 05:35:03;;;;;;;7.40;6.80;;;1.10;68.90;;;;;;10541307;28;20655;-80
2021/03/07 05:40:07;;;;;;;8.23;6.67;;;1.10;67.80;;;;;;10540607;28;20223;-80
2021/03/07 05:45:11;;;;;;;7.83;7.07;;;1.20;68.70;;;;;;10543274;28;20689;-79
2021/03/07 05:50:13;;;;;;;7.87;7.13;;;1.20;69.00;;;;;;10538567;28;20284;-80
2021/03/07 05:55:15;;;;;;;6.73;6.13;;;1.20;68.60;;;;;;10548331;28;20616;-80
2021/03/07 06:00:20;;;;;;;7.57;6.87;;;1.20;68.70;;;;;;10547497;28;20247;-78
2021/03/07 06:05:22;;;;;;;8.00;7.20;;;1.20;69.40;;;;;;10542959;28;20219;-80
2021/03/07 06:10:25;;;;;;;8.23;7.30;;;1.10;69.90;;;;;;10528033;28;20235;-79
2021/03/07 06:15:28;;;;;;;8.50;7.70;;;1.10;69.00;;;;;;10546222;28;20207;-80
2021/03/07 06:20:30;;;;;;;8.63;7.90;;;1.10;69.20;;;;;;10544275;28;20216;-80
2021/03/07 06:25:33;;;;;;;8.80;7.90;;;1.10;69.10;;;;;;10548327;28;20241;-79
2021/03/07 06:30:36;;;;;;;8.70;7.80;;;1.10;69.30;;;;;;10547732;28;20249;-80
2021/03/07 06:35:39;;;;;;;14.33;8.93;;;1.10;69.30;;;;;;10547072;28;20220;-79
2021/03/07 06:40:42;;;;;;;8.90;8.00;;;1.10;69.90;;;;;;10531530;28;20322;-80
2021/03/07 06:45:45;;;;;;;10.00;7.60;;;1.10;69.40;;;;;;10545701;28;20701;-79
2021/03/07 06:50:54;;;;;;;8.37;7.57;;;1.20;69.40;;;;;;10531752;28;20266;-78
2021/03/07 06:55:56;;;;;;;9.70;8.10;;;1.20;69.00;;;;;;10540399;28;20560;-79
2021/03/07 07:00:58;;;;;;;8.90;7.40;;;1.30;69.40;;;;;;10522457;28;20220;-79
2021/03/07 07:06:00;;;;;;;8.07;7.30;;;1.40;67.60;;;;;;10538818;28;20702;-80
2021/03/07 07:11:03;;;;;;;7.93;7.13;;;1.50;68.30;;;;;;10524413;28;20273;-80
2021/03/07 07:16:08;;;;;;;8.70;7.90;;;1.60;68.50;;;;;;10542355;28;20195;-79
2021/03/07 07:21:11;;;;;;;6.90;6.17;;;1.70;68.30;;;;;;10540919;28;20238;-80
2021/03/07 07:26:13;;;;;;;8.57;7.73;;;1.80;68.50;;;;;;10541942;28;20216;-77
2021/03/07 07:31:19;;;;;;;9.60;7.77;;;1.90;68.30;;;;;;10539876;28;20216;-79
2021/03/07 07:36:24;;;;;;;8.60;7.80;;;2.00;68.10;;;;;;10538593;28;20203;-77
2021/03/07 07:41:27;;;;;;;9.13;8.23;;;2.10;68.10;;;;;;10531471;28;20231;-77
2021/03/07 07:46:31;;;;;;;9.80;8.80;;;2.20;67.70;;;;;;10545004;28;20206;-78
2021/03/07 07:51:35;;;;;;;10.50;8.10;;;2.30;68.90;;;;;;10546582;28;20227;-78
2021/03/07 07:56:39;;;;;;;9.83;8.43;;;2.40;68.70;;;;;;10546669;28;20199;-78
2021/03/07 08:01:50;;;;;;;10.20;9.20;;;2.60;68.60;;;;;;10548032;28;20306;-79
2021/03/07 08:06:52;;;;;;;9.93;8.37;;;2.80;68.20;;;;;;10527385;28;20734;-77
2021/03/07 08:11:53;;;;;;;9.30;8.27;;;2.90;67.20;;;;;;10553950;22;20227;-80
2021/03/07 08:16:56;;;;;;;7.63;6.87;;;3.10;67.70;;;;;;10495498;28;20554;-79
2021/03/07 08:22:03;;;;;;;11.30;8.40;;;3.20;67.80;;;;;;10497541;28;20220;-79
2021/03/07 08:27:06;;;;;;;10.17;9.17;;;3.40;67.30;;;;;;10467712;28;20197;-79
2021/03/07 08:32:32;;;;;;;11.40;9.73;;;3.60;67.00;;;;;;10478718;28;20295;-79
2021/03/07 08:37:34;;;;;;;10.43;9.30;;;3.80;66.80;;;;;;10480886;28;20211;-79
2021/03/07 08:42:36;;;;;;;10.20;9.20;;;3.90;66.60;;;;;;10478555;28;20406;-80
2021/03/07 08:47:59;;;;;;;8.50;7.80;;;4.10;66.80;;;;;;10475588;28;20201;-79
2021/03/07 08:53:01;;;;;;;10.63;9.47;;;4.30;66.70;;;;;;10496704;28;20283;-80
2021/03/07 08:58:02;;;;;;;10.67;9.57;;;4.50;65.40;;;;;;10494569;28;20234;-79
2021/03/07 09:03:05;;;;;;;9.03;8.10;;;4.70;65.00;;;;;;10468046;28;20900;-80
2021/03/07 09:08:08;;;;;;;9.20;8.30;;;4.90;65.10;;;;;;10495319;28;20687;-80
2021/03/07 09:13:11;;;;;;;8.53;7.73;;;5.00;65.40;;;;;;10495639;28;20228;-81
2021/03/07 09:18:15;;;;;;;9.63;8.37;;;5.20;64.30;;;;;;10495442;28;20546;-80
2021/03/07 09:23:31;;;;;;;9.60;8.70;;;5.40;63.90;;;;;;10494107;28;20223;-80
2021/03/07 09:28:38;;;;;;;9.80;8.63;;;5.50;64.10;;;;;;10486272;28;20196;-81
2021/03/07 09:33:47;;;;;;;8.77;7.97;;;5.80;63.90;;;;;;10481645;28;20221;-81
2021/03/07 09:38:51;;;;;;;9.67;8.73;;;6.10;63.40;;;;;;10478585;28;20207;-80
2021/03/07 09:43:53;;;;;;;8.83;8.03;;;6.50;62.50;;;;;;10478661;28;20225;-81
2021/03/07 09:49:01;;;;;;;9.57;8.67;;;6.90;61.30;;;;;;10473086;28;20664;-81
2021/03/07 09:54:04;;;;;;;12.97;10.87;;;7.20;61.60;;;;;;10488597;28;20193;-81
2021/03/07 09:59:09;;;;;;;11.63;10.07;;;7.60;61.40;;;;;;10493383;28;20249;-81
2021/03/07 10:04:31;;;;;;;11.10;10.00;;;7.90;60.70;;;;;;10493040;28;20239;-81
2021/03/07 10:09:32;;;;;;;10.50;9.40;;;8.00;59.00;;;;;;10491941;28;20235;-81
2021/03/07 10:14:34;;;;;;;10.47;9.40;;;8.10;59.80;;;;;;10472319;28;20291;-81
2021/03/07 10:19:38;;;;;;;11.10;10.00;;;8.30;60.90;;;;;;10493175;28;20274;-81
2021/03/07 10:24:40;;;;;;;11.13;10.00;;;8.40;59.40;;;;;;10476473;28;20227;-81
2021/03/07 10:29:52;;;;;;;10.83;9.73;;;8.40;59.40;;;;;;10491851;28;20339;-81
2021/03/07 10:34:55;;;;;;;12.40;11.10;;;8.40;59.80;;;;;;10506088;28;20224;-81
2021/03/07 10:39:57;;;;;;;11.50;10.33;;;8.40;59.30;;;;;;10562959;22;20761;-80
2021/03/07 10:50:40;;;;;;;11.67;10.27;;;8.60;59.70;;;;;;10514502;28;20228;-80
2021/03/07 10:55:49;;;;;;;11.17;10.00;;;8.60;59.50;;;;;;10510477;28;20184;-80
2021/03/07 11:00:51;;;;;;;11.53;10.40;;;8.70;59.80;;;;;;10513070;28;20217;-80
2021/03/07 11:05:54;;;;;;;11.50;9.87;;;9.00;59.70;;;;;;10492091;28;20226;-80
2021/03/07 11:10:56;;;;;;;11.67;10.53;;;9.20;58.50;;;;;;10495964;28;20250;-80
2021/03/07 11:15:57;;;;;;;11.53;10.33;;;9.20;58.40;;;;;;10512449;28;20893;-80
2021/03/07 11:21:00;;;;;;;11.10;9.90;;;9.00;58.30;;;;;;10512294;28;20306;-80
2021/03/07 11:26:01;;;;;;;13.80;11.03;;;8.80;59.70;;;;;;10514466;28;20248;-81
2021/03/07 11:31:03;;;;;;;12.67;11.40;;;8.60;59.00;;;;;;10508207;28;20239;-80
2021/03/07 11:36:07;;;;;;;11.20;10.13;;;8.50;60.50;;;;;;10504224;28;20282;-80
2021/03/07 11:41:08;;;;;;;11.20;9.97;;;8.50;60.10;;;;;;10509964;28;20220;-81
2021/03/07 11:46:10;;;;;;;12.27;10.87;;;8.60;59.70;;;;;;10499883;28;20346;-81
2021/03/07 11:51:12;;;;;;;12.53;11.33;;;8.60;60.70;;;;;;10506969;28;20216;-79
2021/03/07 11:56:14;;;;;;;12.23;10.90;;;8.50;60.80;;;;;;10490941;28;20189;-79
2021/03/07 12:01:16;;;;;;;13.70;11.50;;;8.40;61.40;;;;;;10478192;28;20652;-79
2021/03/07 12:06:18;;;;;;;14.40;11.77;;;8.30;60.60;;;;;;10487777;28;20224;-79
2021/03/07 12:11:20;;;;;;;11.00;9.90;;;8.20;61.40;;;;;;10487973;28;20297;-79
2021/03/07 12:16:22;;;;;;;12.07;10.77;;;8.10;60.80;;;;;;10476658;28;20354;-79
2021/03/07 12:21:24;;;;;;;12.03;10.83;;;8.10;60.40;;;;;;10485837;28;20306;-79
2021/03/07 12:26:26;;;;;;;11.67;10.57;;;8.10;60.80;;;;;;10483943;28;20781;-79
2021/03/07 12:31:27;;;;;;;11.03;9.80;;;8.10;60.80;;;;;;10504490;28;20220;-79
2021/03/07 12:36:30;;;;;;;11.90;10.60;;;8.10;60.60;;;;;;10508706;28;20246;-80
2021/03/07 12:41:32;;;;;;;11.63;10.40;;;8.20;60.50;;;;;;10508711;28;20617;-80
2021/03/07 12:46:34;;;;;;;12.03;10.23;;;8.20;60.50;;;;;;10498979;28;20350;-81
2021/03/07 12:51:37;;;;;;;11.87;10.63;;;8.30;60.10;;;;;;10492804;28;20226;-81
2021/03/07 12:56:38;;;;;;;11.70;10.50;;;8.20;59.70;;;;;;10501020;28;20200;-81
2021/03/07 13:01:40;;;;;;;10.20;9.20;;;8.20;59.70;;;;;;10499090;28;20836;-81
2021/03/07 13:06:42;;;;;;;13.30;10.70;;;8.20;60.00;;;;;;10479844;28;20259;-81
2021/03/07 13:11:44;;;;;;;10.90;9.80;;;8.20;60.20;;;;;;10485628;28;20225;-81
2021/03/07 13:16:46;;;;;;;12.20;10.90;;;8.30;60.70;;;;;;10484885;28;20215;-81
2021/03/07 13:21:49;;;;;;;12.57;11.23;;;8.30;59.90;;;;;;10509218;28;20311;-81
2021/03/07 13:26:52;;;;;;;15.37;11.20;;;8.30;59.60;;;;;;10506505;28;20310;-80
2021/03/07 13:31:53;;;;;;;11.97;10.77;;;8.30;61.10;;;;;;10489191;28;20254;-80
2021/03/07 13:36:56;;;;;;;10.70;9.60;;;8.40;61.00;;;;;;10495345;28;20255;-81
2021/03/07 13:42:00;;;;;;;11.67;10.50;;;8.40;60.50;;;;;;10471267;28;20354;-80
2021/03/07 13:47:03;;;;;;;11.93;10.73;;;8.40;60.60;;;;;;10487568;28;20301;-80
2021/03/07 13:52:06;;;;;;;11.00;9.90;;;8.40;61.00;;;;;;10481606;28;20228;-80
2021/03/07 13:57:08;;;;;;;11.13;10.03;;;8.40;60.00;;;;;;10488826;28;20196;-80
2021/03/07 14:02:09;;;;;;;11.97;10.87;;;8.40;61.60;;;;;;10487781;28;20303;-80
2021/03/07 14:07:12;;;;;;;11.83;10.63;;;8.50;61.50;;;;;;10492099;28;20203;-81
2021/03/07 14:12:15;;;;;;;12.63;11.17;;;8.50;62.00;;;;;;10521629;22;20224;-79
2021/03/07 14:17:17;;;;;;;11.90;10.80;;;8.50;61.90;;;;;;10514360;28;20738;-80
2021/03/07 14:22:21;;;;;;;13.47;10.60;;;8.50;61.10;;;;;;10516002;28;20544;-78
2021/03/07 14:27:23;;;;;;;11.90;10.70;;;8.60;61.70;;;;;;10511749;28;20287;-79
2021/03/07 14:32:26;;;;;;;13.33;11.03;;;8.60;60.10;;;;;;10514030;28;20314;-80
2021/03/07 14:37:28;;;;;;;11.33;10.23;;;8.70;59.40;;;;;;10512520;28;20564;-80
2021/03/07 14:42:30;;;;;;;11.63;9.93;;;8.70;59.70;;;;;;10517818;28;20220;-80
2021/03/07 14:47:37;;;;;;;12.53;11.23;;;8.80;60.70;;;;;;10526225;28;20313;-78
2021/03/07 14:52:40;;;;;;;12.23;10.93;;;8.80;59.40;;;;;;10542366;28;20544;-81
2021/03/07 14:57:42;;;;;;;11.57;10.37;;;8.80;60.00;;;;;;10540178;28;20207;-80
2021/03/07 15:02:45;;;;;;;12.67;11.37;;;8.80;59.90;;;;;;10545763;28;20216;-81
2021/03/07 15:07:48;;;;;;;10.70;9.60;;;8.80;60.30;;;;;;10519573;28;20200;-79
2021/03/07 15:12:49;;;;;;;12.47;10.30;;;8.80;60.70;;;;;;10530792;28;20243;-79
2021/03/07 15:17:54;;;;;;;11.87;10.67;;;8.80;60.50;;;;;;10505828;28;20204;-78
2021/03/07 15:22:56;;;;;;;11.07;9.80;;;8.80;60.90;;;;;;10517269;28;20223;-80
2021/03/07 15:27:58;;;;;;;11.10;9.90;;;8.80;58.90;;;;;;10519237;28;20291;-78
2021/03/07 15:32:59;;;;;;;10.17;9.00;;;8.80;59.40;;;;;;10541715;28;20216;-80
2021/03/07 15:38:02;;;;;;;11.43;10.27;;;8.80;59.30;;;;;;10527021;28;20686;-80
2021/03/07 15:43:04;;;;;;;12.50;10.97;;;8.80;61.00;;;;;;10526761;28;20231;-80
2021/03/07 15:48:06;;;;;;;13.70;10.43;;;8.90;58.90;;;;;;10534881;28;20267;-80
2021/03/07 15:53:09;;;;;;;13.53;11.03;;;8.90;58.20;;;;;;10535016;28;20216;-80
2021/03/07 15:58:10;;;;;;;11.63;9.50;;;8.90;58.00;;;;;;10518508;28;20248;-81
2021/03/07 16:03:12;;;;;;;12.53;10.63;;;8.90;57.90;;;;;;10526098;28;20645;-80
2021/03/07 16:08:14;;;;;;;13.20;11.77;;;8.90;59.00;;;;;;10538765;28;20189;-80
2021/03/07 16:13:16;;;;;;;13.20;9.97;;;8.80;58.30;;;;;;10515314;28;20335;-80
2021/03/07 16:18:18;;;;;;;11.97;10.73;;;8.80;57.80;;;;;;10544287;28;20203;-79
2021/03/07 16:23:20;;;;;;;13.13;11.73;;;8.80;57.70;;;;;;10534995;28;20239;-80
2021/03/07 16:28:22;;;;;;;11.80;10.50;;;8.70;58.90;;;;;;10536588;28;20200;-79
2021/03/07 16:33:24;;;;;;;12.00;10.43;;;8.70;59.90;;;;;;10535700;28;20558;-82
2021/03/07 16:38:26;;;;;;;12.60;11.03;;;8.70;60.30;;;;;;10548492;28;20195;-82
2021/03/07 16:43:28;;;;;;;12.07;10.57;;;8.70;62.30;;;;;;10550754;28;20245;-80
2021/03/07 16:48:32;;;;;;;11.97;10.47;;;8.60;62.80;;;;;;10556186;28;20671;-79
2021/03/07 16:53:34;;;;;;;11.33;10.00;;;8.50;63.60;;;;;;10525951;28;20227;-80
2021/03/07 16:58:36;;;;;;;11.63;10.43;;;8.40;64.30;;;;;;10537674;28;20234;-78
2021/03/07 17:03:37;;;;;;;13.67;11.27;;;8.30;65.50;;;;;;10525881;28;20291;-78
2021/03/07 17:08:40;;;;;;;14.20;11.57;;;8.20;64.10;;;;;;10527458;28;20214;-79
2021/03/07 17:13:42;;;;;;;12.47;11.17;;;8.20;64.80;;;;;;10514613;28;20790;-76
2021/03/07 17:18:43;;;;;;;15.67;13.83;;;8.10;65.30;;;;;;10524374;28;20200;-77
2021/03/07 17:23:46;;;;;;;13.40;12.00;;;8.00;62.20;;;;;;10529765;28;20286;-78
2021/03/07 17:28:48;;;;;;;15.03;12.13;;;7.90;62.20;;;;;;10530005;28;20648;-79
2021/03/07 17:33:50;;;;;;;12.97;11.57;;;7.80;63.20;;;;;;10531789;28;20270;-76
2021/03/07 17:38:52;;;;;;;13.33;11.50;;;7.60;63.70;;;;;;10533794;28;20208;-77
2021/03/07 17:43:54;;;;;;;14.00;12.30;;;7.40;64.30;;;;;;10515189;28;20253;-78
2021/03/07 17:48:56;;;;;;;14.50;12.97;;;7.40;64.80;;;;;;10512920;28;20315;-77
2021/03/07 17:53:59;;;;;;;18.53;15.13;;;7.30;65.30;;;;;;10528419;28;20229;-79
2021/03/07 17:59:00;;;;;;;16.10;14.50;;;7.10;65.50;;;;;;10511916;28;20663;-78
2021/03/07 18:04:02;;;;;;;17.17;15.37;;;7.00;65.70;;;;;;10533336;28;20254;-78
2021/03/07 18:09:06;;;;;;;20.97;17.13;;;6.80;66.50;;;;;;10530079;28;20211;-79
2021/03/07 18:14:08;;;;;;;16.07;14.47;;;6.70;66.80;;;;;;10511893;28;20295;-79
2021/03/07 18:19:10;;;;;;;17.63;15.83;;;6.60;67.20;;;;;;10523342;28;20222;-79
2021/03/07 18:24:12;;;;;;;16.20;14.57;;;6.50;68.00;;;;;;10516899;28;20772;-80
2021/03/07 18:29:14;;;;;;;19.13;17.17;;;6.40;68.10;;;;;;10524365;28;20202;-79
2021/03/07 18:34:16;;;;;;;18.70;16.80;;;6.30;68.70;;;;;;10510568;28;20219;-81
2021/03/07 18:39:18;;;;;;;16.97;15.17;;;6.20;69.30;;;;;;10484552;28;20287;-79
2021/03/07 18:44:20;;;;;;;18.73;16.60;;;6.00;69.80;;;;;;10502654;28;20733;-80
2021/03/07 18:49:22;;;;;;;17.90;15.63;;;6.00;70.40;;;;;;10502471;28;20303;-79
2021/03/07 18:54:26;;;;;;;17.50;15.70;;;5.90;70.40;;;;;;10508340;28;20198;-79
2021/03/07 18:59:28;;;;;;;17.10;15.07;;;5.80;71.30;;;;;;10548866;28;20215;-80
2021/03/07 19:04:30;;;;;;;19.30;16.50;;;5.70;71.60;;;;;;10519746;28;20235;-79
2021/03/07 19:09:34;;;;;;;17.10;15.37;;;5.60;72.00;;;;;;10504034;28;20199;-79
2021/03/07 19:14:45;;;;;;;19.73;16.50;;;5.50;72.30;;;;;;10520702;28;20278;-79
2021/03/07 19:19:49;;;;;;;16.80;15.10;;;5.50;72.20;;;;;;10520205;28;20669;-80
2021/03/07 19:24:52;;;;;;;16.83;15.03;;;5.40;72.40;;;;;;10493866;28;20227;-78
2021/03/07 19:29:57;;;;;;;18.20;15.47;;;5.40;73.10;;;;;;10498025;28;20224;-79
2021/03/07 19:35:00;;;;;;;16.80;15.10;;;5.30;73.20;;;;;;10496930;28;20319;-79
2021/03/07 19:40:03;;;;;;;17.43;15.60;;;5.20;73.50;;;;;;10518107;28;20376;-79
2021/03/07 19:45:07;;;;;;;19.73;17.60;;;5.20;73.80;;;;;;10517072;28;20230;-79
2021/03/07 19:50:45;;;;;;;22.30;18.97;;;5.10;73.80;;;;;;10450023;28;20334;-80
2021/03/07 19:55:49;;;;;;;23.20;19.23;;;5.00;75.00;;;;;;10529127;28;20576;-79
2021/03/07 20:00:50;;;;;;;24.03;19.37;;;5.00;74.50;;;;;;10528375;28;20235;-79
2021/03/07 20:06:15;;;;;;;24.93;20.73;;;4.90;74.50;;;;;;10514356;28;20754;-79
2021/03/07 20:11:19;;;;;;;20.53;18.10;;;4.90;74.90;;;;;;10520387;28;20603;-78
2021/03/07 20:16:27;;;;;;;20.40;17.97;;;4.80;74.90;;;;;;10518480;28;20200;-80
2021/03/07 20:21:29;;;;;;;20.20;17.53;;;4.70;75.00;;;;;;10506338;28;20220;-79
2021/03/07 20:26:32;;;;;;;20.90;18.23;;;4.70;75.00;;;;;;10511308;28;20228;-80
2021/03/07 20:31:33;;;;;;;20.80;18.60;;;4.60;75.10;;;;;;10493574;28;20220;-78
2021/03/07 20:36:35;;;;;;;20.27;18.07;;;4.50;75.10;;;;;;10508782;28;20200;-79
2021/03/07 20:42:07;;;;;;;18.20;15.77;;;4.40;75.60;;;;;;10491110;28;20991;-79
2021/03/07 20:47:12;;;;;;;19.70;17.40;;;4.40;75.60;;;;;;10508439;28;20683;-78
2021/03/07 20:52:14;;;;;;;20.53;17.30;;;4.40;75.60;;;;;;10512561;28;20826;-79
2021/03/07 20:57:17;;;;;;;18.37;16.47;;;4.30;75.60;;;;;;10506064;28;20274;-79
2021/03/07 21:02:19;;;;;;;18.40;16.40;;;4.20;75.90;;;;;;10516209;28;20571;-79
2021/03/07 21:07:21;;;;;;;17.40;15.60;;;4.20;75.90;;;;;;10517866;28;20220;-80
2021/03/07 21:12:24;;;;;;;18.17;15.93;;;4.20;76.30;;;;;;10524469;28;20314;-79
2021/03/07 21:17:26;;;;;;;18.90;14.90;;;4.10;76.10;;;;;;10524810;28;20199;-78
2021/03/07 21:22:27;;;;;;;17.23;15.43;;;4.00;76.10;;;;;;10529859;28;20863;-79
2021/03/07 21:27:30;;;;;;;17.50;14.63;;;4.00;76.20;;;;;;10518577;28;20224;-79
2021/03/07 21:32:32;;;;;;;19.93;16.77;;;3.90;76.50;;;;;;10521442;28;20610;-79
2021/03/07 21:37:33;;;;;;;18.33;16.10;;;3.90;76.50;;;;;;10526709;28;20210;-79
2021/03/07 21:42:36;;;;;;;17.20;15.40;;;3.80;76.40;;;;;;10528862;28;20223;-79
2021/03/07 21:47:37;;;;;;;17.57;15.67;;;3.80;76.70;;;;;;10528665;28;20227;-80
2021/03/07 21:52:40;;;;;;;18.53;15.40;;;3.80;76.70;;;;;;10527566;28;20220;-79
2021/03/07 21:57:42;;;;;;;17.67;15.63;;;3.80;76.60;;;;;;10527806;28;20468;-78
2021/03/07 22:02:44;;;;;;;17.23;15.43;;;3.70;76.20;;;;;;10527060;28;20220;-79
2021/03/07 22:07:48;;;;;;;17.47;15.60;;;3.70;76.20;;;;;;10527532;28;20649;-79
2021/03/07 22:12:50;;;;;;;17.10;15.33;;;3.60;76.10;;;;;;10528411;28;20234;-78
2021/03/07 22:17:52;;;;;;;16.43;14.73;;;3.60;75.80;;;;;;10525264;28;20287;-78
2021/03/07 22:22:54;;;;;;;15.23;13.73;;;3.60;75.50;;;;;;10525710;28;20249;-78
2021/03/07 22:27:56;;;;;;;16.13;14.47;;;3.60;75.50;;;;;;10523072;28;20210;-78
2021/03/07 22:32:58;;;;;;;16.20;14.60;;;3.60;75.50;;;;;;10525294;28;20623;-77
2021/03/07 22:38:00;;;;;;;15.57;13.70;;;3.50;75.10;;;;;;10526842;28;20652;-77
2021/03/07 22:43:02;;;;;;;13.90;12.50;;;3.50;74.80;;;;;;10526012;28;20222;-78
2021/03/07 22:48:04;;;;;;;15.70;14.10;;;3.50;74.70;;;;;;10525532;28;20271;-78
2021/03/07 22:53:06;;;;;;;15.00;13.50;;;3.40;74.40;;;;;;10528662;28;20275;-79
2021/03/07 22:58:08;;;;;;;14.63;13.23;;;3.40;74.10;;;;;;10545260;28;20239;-80
2021/03/07 23:03:13;;;;;;;13.17;11.77;;;3.40;73.90;;;;;;10540705;28;20236;-80
2021/03/07 23:08:14;;;;;;;15.17;12.97;;;3.30;73.40;;;;;;10542919;28;20251;-80
2021/03/07 23:13:17;;;;;;;14.53;13.03;;;3.30;73.30;;;;;;10535189;28;20298;-78
2021/03/07 23:18:19;;;;;;;12.20;11.07;;;3.20;73.30;;;;;;10521600;28;20184;-79
2021/03/07 23:23:21;;;;;;;13.23;11.93;;;3.20;73.30;;;;;;10541947;28;20246;-79
2021/03/07 23:28:24;;;;;;;13.63;11.60;;;3.30;73.30;;;;;;10535840;28;20617;-79
2021/03/07 23:33:28;;;;;;;11.90;10.80;;;3.30;73.20;;;;;;10532483;28;20675;-78
2021/03/07 23:38:29;;;;;;;12.57;10.90;;;3.40;72.60;;;;;;10540567;28;20231;-78
2021/03/07 23:43:32;;;;;;;11.87;10.73;;;3.30;72.20;;;;;;10540048;28;20223;-78
2021/03/07 23:48:48;;;;;;;12.53;11.10;;;3.30;72.20;;;;;;10539182;28;20196;-78
2021/03/07 23:53:52;;;;;;;12.93;11.63;;;3.20;71.90;;;;;;10527356;28;20218;-78
2021/03/07 23:58:55;;;;;;;11.70;10.60;;;3.10;71.90;;;;;;10520080;28;20204;-78
